Time;durP1;ratioP1;P1;durP2;ratioP2;P2;SDS_P1;SDS_P2;PMS_P1;PMS_P2;Temp;Humidity;BMP_temperature;BMP_pressure;BME280_temperature;BME280_humidity;BME280_pressure;Samples;Min_cycle;Max_cycle;Signal;HPM_P1;HPM_P2
2022/06/26 00:01:47;;;;;;;7.15;6.65;;;20.90;99.90;;;-141.84;73.83;19712.22;5067390;28;20238;-59
2022/06/26 00:04:15;;;;;;;7.43;6.82;;;20.90;99.90;;;-141.84;74.50;19724.41;5054295;28;20291;-59
2022/06/26 00:06:44;;;;;;;8.23;7.53;;;20.80;99.90;;;-141.84;74.76;19716.28;5054069;28;20237;-61
2022/06/26 00:09:13;;;;;;;7.95;7.35;;;20.80;99.90;;;-141.84;74.95;19698.00;5053479;28;20248;-60
2022/06/26 00:11:41;;;;;;;8.73;7.85;;;20.80;99.90;;;-141.84;75.15;19685.81;5054264;28;20751;-60
2022/06/26 00:14:09;;;;;;;7.80;7.20;;;20.70;99.90;;;-141.84;75.05;19691.91;5063017;28;20232;-59
2022/06/26 00:16:37;;;;;;;8.00;7.40;;;20.70;99.90;;;-141.84;75.22;19728.47;5055336;28;20212;-62
2022/06/26 00:19:06;;;;;;;8.77;8.05;;;20.70;99.90;;;-141.84;75.26;19675.63;5053477;28;20245;-62
2022/06/26 00:21:34;;;;;;;8.45;7.75;;;20.70;99.90;;;-141.84;75.57;19649.22;5054174;28;20236;-61
2022/06/26 00:24:04;;;;;;;9.27;8.50;;;20.80;99.90;;;-141.84;76.14;19643.13;5058464;28;20238;-60
2022/06/26 00:26:32;;;;;;;8.90;8.20;;;20.60;99.90;;;-141.84;76.52;19602.47;5066318;28;20238;-60
2022/06/26 00:29:00;;;;;;;9.38;8.60;;;20.60;99.90;;;-141.84;77.16;19632.97;5064314;28;20291;-60
2022/06/26 00:31:29;;;;;;;9.23;8.30;;;20.60;99.90;;;-141.84;77.04;19632.97;5055016;28;20653;-61
2022/06/26 00:33:57;;;;;;;9.30;8.55;;;20.50;99.90;;;-141.84;77.23;19600.44;5053182;28;20287;-60
2022/06/26 00:36:25;;;;;;;8.50;7.85;;;20.50;99.90;;;-141.84;75.95;19667.50;5065509;28;20722;-60
2022/06/26 00:38:53;;;;;;;9.27;8.48;;;20.50;99.90;;;-141.84;74.08;19704.09;5073417;28;20258;-61
2022/06/26 00:41:26;;;;;;;9.95;9.15;;;20.70;99.90;;;-141.84;72.74;19730.50;5073521;28;20228;-60
2022/06/26 00:43:54;;;;;;;9.02;8.30;;;20.80;99.90;;;-141.84;73.57;19689.88;5073154;28;20292;-60
2022/06/26 00:46:24;;;;;;;8.88;8.07;;;20.80;99.90;;;-141.84;74.50;19679.72;5073783;28;20682;-60
2022/06/26 00:48:53;;;;;;;8.68;8.02;;;20.80;99.90;;;-141.84;75.45;19659.38;5072978;28;20251;-61
2022/06/26 00:51:22;;;;;;;9.30;8.50;;;20.70;99.90;;;-141.84;75.73;19649.22;5073374;28;20766;-60
2022/06/26 00:53:50;;;;;;;9.02;8.18;;;20.70;99.90;;;-141.84;76.49;19643.13;5073105;28;20254;-60
2022/06/26 00:56:19;;;;;;;9.00;8.20;;;20.60;99.90;;;-141.84;76.81;19630.94;5072799;28;20815;-60
2022/06/26 00:58:48;;;;;;;9.63;8.82;;;20.50;99.90;;;-141.84;76.98;19639.06;5072677;28;20760;-60
2022/06/26 01:01:16;;;;;;;9.20;8.50;;;20.40;99.90;;;-141.84;77.43;19622.81;5074069;28;20203;-59
2022/06/26 01:03:45;;;;;;;9.68;8.88;;;20.40;99.90;;;-141.84;78.34;19608.56;5073322;28;20224;-61
2022/06/26 01:06:13;;;;;;;9.27;8.48;;;20.30;99.90;;;-141.84;79.21;19541.50;5064964;28;20316;-60
2022/06/26 01:08:41;;;;;;;9.77;8.90;;;20.20;99.90;;;-141.84;79.35;19553.72;5052826;28;21025;-60
2022/06/26 01:11:18;;;;;;;9.20;8.40;;;20.10;99.90;;;-141.84;79.75;19569.97;5052978;28;20228;-60
2022/06/26 01:13:50;;;;;;;9.15;8.45;;;20.10;99.90;;;-141.84;79.55;19535.41;5052656;28;20700;-61
2022/06/26 01:16:20;;;;;;;9.68;8.77;;;20.10;99.90;;;-141.84;79.63;19549.63;5053263;28;20624;-60
2022/06/26 01:18:52;;;;;;;10.02;9.13;;;20.00;99.90;;;-141.84;79.72;19549.63;5052682;28;20225;-61
2022/06/26 01:21:22;;;;;;;9.82;9.05;;;20.00;99.90;;;-141.84;79.87;19509.00;5052625;28;20229;-61
2022/06/26 01:23:53;;;;;;;10.30;9.45;;;20.00;99.90;;;-141.84;80.55;19500.88;5052632;28;20268;-61
2022/06/26 01:26:23;;;;;;;10.05;9.30;;;19.90;99.90;;;-141.84;80.53;19517.13;5052966;28;20304;-60
2022/06/26 01:28:51;;;;;;;9.95;9.00;;;19.90;99.90;;;-141.84;80.83;19527.28;5061569;28;20251;-60
2022/06/26 01:31:20;;;;;;;10.48;9.48;;;19.90;99.90;;;-141.84;81.05;19504.94;5073410;28;20292;-59
2022/06/26 01:33:50;;;;;;;10.77;9.77;;;19.90;99.90;;;-141.84;81.06;19527.28;5072463;28;20232;-61
2022/06/26 01:36:18;;;;;;;10.27;9.35;;;19.80;99.90;;;-141.84;81.46;19490.72;5072533;28;20304;-61
2022/06/26 01:38:47;;;;;;;11.60;10.60;;;19.80;99.90;;;-141.84;81.54;19494.78;5067486;28;20271;-60
2022/06/26 01:41:16;;;;;;;10.75;9.75;;;19.80;99.90;;;-141.84;81.68;19476.47;5061588;28;20315;-59
2022/06/26 01:43:45;;;;;;;10.75;9.85;;;19.80;99.90;;;-141.84;81.71;19486.66;5092600;28;20204;-60
2022/06/26 01:46:13;;;;;;;10.80;9.90;;;19.80;99.90;;;-141.84;81.89;19488.69;5059965;28;20241;-60
2022/06/26 01:48:42;;;;;;;10.25;9.45;;;19.80;99.90;;;-141.84;82.46;19460.22;5052249;28;20256;-59
2022/06/26 01:51:10;;;;;;;10.57;9.68;;;19.70;99.90;;;-141.84;82.91;19446.00;5066104;28;20658;-60
2022/06/26 01:53:39;;;;;;;10.55;9.70;;;19.70;99.90;;;-141.84;83.02;19429.75;5072536;28;20228;-61
2022/06/26 01:56:07;;;;;;;9.88;9.13;;;19.70;99.90;;;-141.84;83.06;19437.88;5065843;28;20248;-60
2022/06/26 01:58:37;;;;;;;11.13;10.23;;;19.60;99.90;;;-141.84;83.36;19417.56;5072554;28;20293;-61
2022/06/26 02:01:07;;;;;;;10.48;9.57;;;19.60;99.90;;;-141.84;83.72;19421.63;5066684;28;20225;-61
2022/06/26 02:03:35;;;;;;;11.15;10.25;;;19.60;99.90;;;-141.84;83.04;19421.63;5052019;28;20240;-61
2022/06/26 02:06:04;;;;;;;10.70;9.80;;;19.60;99.90;;;-141.84;82.33;19452.09;5051639;28;20408;-60
2022/06/26 02:08:32;;;;;;;10.18;9.23;;;19.60;99.90;;;-141.84;81.78;19435.84;5050816;28;20669;-60
2022/06/26 02:13:49;;;;;;;10.68;9.77;;;19.60;99.90;;;-141.84;83.02;19454.13;5052058;28;20288;-61
2022/06/26 02:16:22;;;;;;;10.40;9.50;;;19.60;99.90;;;-141.84;83.10;19443.97;5054590;28;20205;-59
2022/06/26 02:18:53;;;;;;;10.48;9.48;;;19.60;99.90;;;-141.84;83.31;19407.38;5059481;28;20267;-61
2022/06/26 02:21:24;;;;;;;10.38;9.40;;;19.50;99.90;;;-141.84;83.45;19405.34;5064937;28;20251;-59
2022/06/26 02:23:55;;;;;;;10.98;9.98;;;19.50;99.90;;;-141.84;83.84;19409.41;5052691;28;20235;-60
2022/06/26 02:26:24;;;;;;;10.95;9.95;;;19.40;99.90;;;-141.84;84.14;19393.16;5051284;28;20305;-60
2022/06/26 02:28:54;;;;;;;11.13;10.15;;;19.40;99.90;;;-141.84;84.25;19350.50;5060324;28;20201;-59
2022/06/26 02:31:23;;;;;;;10.70;9.70;;;19.40;99.90;;;-141.84;84.62;19370.81;5071301;28;20193;-60
2022/06/26 02:33:51;;;;;;;10.90;10.00;;;19.40;99.90;;;-141.84;84.92;19364.72;5070300;28;20231;-61
2022/06/26 02:36:20;;;;;;;10.85;10.05;;;19.30;99.90;;;-141.84;85.17;19358.63;5070382;28;20307;-60
2022/06/26 02:38:48;;;;;;;11.20;10.30;;;19.30;99.90;;;-141.84;84.44;19401.28;5086072;28;20250;-60
2022/06/26 02:41:16;;;;;;;10.75;9.85;;;19.30;99.90;;;-141.84;84.39;19372.84;5074917;28;20309;-59
2022/06/26 02:43:44;;;;;;;10.43;9.63;;;19.30;99.90;;;-141.84;84.85;19378.94;5070879;28;20230;-61
2022/06/26 02:46:14;;;;;;;10.32;9.43;;;19.30;99.90;;;-141.84;84.73;19374.88;5063679;28;20202;-60
2022/06/26 02:48:42;;;;;;;10.43;9.63;;;19.30;99.90;;;-141.84;84.71;19374.88;5050460;28;20225;-61
2022/06/26 02:51:10;;;;;;;10.25;9.45;;;19.30;99.90;;;-141.84;85.45;19311.88;5050173;28;20225;-60
2022/06/26 02:53:38;;;;;;;10.32;9.52;;;19.30;99.90;;;-141.84;85.98;19346.44;5065827;28;20235;-61
2022/06/26 02:56:06;;;;;;;10.85;9.85;;;19.30;99.90;;;-141.84;86.42;19313.91;5067209;28;20315;-61
2022/06/26 02:58:34;;;;;;;11.65;10.65;;;19.30;99.90;;;-141.84;86.89;19297.66;5057810;28;20236;-61
2022/06/26 03:01:03;;;;;;;11.80;10.70;;;19.30;99.90;;;-141.84;85.88;19330.16;5070138;28;20228;-61
2022/06/26 03:03:32;;;;;;;11.65;10.65;;;19.30;99.90;;;-141.84;86.07;19334.22;5053878;28;20232;-59
2022/06/26 03:06:00;;;;;;;12.23;11.25;;;19.40;99.90;;;-141.84;86.72;19281.41;5050411;28;20225;-61
2022/06/26 03:08:29;;;;;;;11.73;10.85;;;19.40;99.90;;;-141.84;87.05;19293.59;5050441;28;20235;-60
2022/06/26 03:10:57;;;;;;;11.30;10.48;;;19.40;99.90;;;-141.84;87.59;19250.91;5049988;28;20649;-59
2022/06/26 03:13:25;;;;;;;12.70;11.70;;;19.40;99.90;;;-141.84;87.08;19273.28;5058724;28;20219;-62
2022/06/26 03:15:53;;;;;;;12.30;11.30;;;19.40;99.90;;;-141.84;87.32;19283.44;5050347;28;20313;-60
2022/06/26 03:18:21;;;;;;;12.75;11.75;;;19.40;99.90;;;-141.84;87.50;19240.75;5050605;28;20241;-61
2022/06/26 03:20:51;;;;;;;11.70;10.80;;;19.50;99.90;;;-141.84;86.39;19297.66;5059981;28;20646;-59
2022/06/26 03:23:19;;;;;;;12.80;11.80;;;19.50;99.90;;;-141.84;86.47;19273.28;5050802;28;20263;-61
2022/06/26 03:25:47;;;;;;;12.00;11.10;;;19.50;99.90;;;-141.84;86.59;19232.63;5057237;28;20243;-60
2022/06/26 03:28:15;;;;;;;11.52;10.63;;;19.50;99.90;;;-141.84;86.66;19254.97;5070930;28;20208;-60
2022/06/26 03:30:43;;;;;;;11.52;10.52;;;19.60;99.90;;;-141.84;86.31;19275.31;5067617;28;20711;-60
2022/06/26 03:33:11;;;;;;;12.57;11.65;;;19.60;99.90;;;-141.84;85.31;19301.72;5050398;28;20229;-60
2022/06/26 03:35:40;;;;;;;11.68;10.77;;;19.60;99.90;;;-141.84;84.80;19328.13;5050649;28;20260;-60
2022/06/26 03:38:10;;;;;;;11.45;10.63;;;19.70;99.90;;;-141.84;85.26;19307.81;5050260;28;20882;-60
2022/06/26 03:40:38;;;;;;;10.88;10.02;;;19.70;99.90;;;-141.84;85.43;19309.84;5050999;28;20190;-62
2022/06/26 03:43:09;;;;;;;11.07;10.27;;;19.70;99.90;;;-141.84;85.17;19305.78;5049789;28;20659;-60
2022/06/26 03:45:37;;;;;;;10.95;10.13;;;19.80;99.90;;;-141.84;84.62;19295.63;5061859;28;20259;-60
2022/06/26 03:48:06;;;;;;;11.70;10.70;;;19.80;99.90;;;-141.84;83.66;19340.31;5055531;28;20240;-60
2022/06/26 03:50:35;;;;;;;10.57;9.57;;;19.90;99.90;;;-141.84;83.89;19267.16;5070540;28;20220;-60
2022/06/26 03:53:03;;;;;;;10.50;9.70;;;19.90;99.90;;;-141.84;83.34;19364.72;5056226;28;20225;-61
2022/06/26 03:55:32;;;;;;;10.18;9.38;;;20.80;99.90;;;-141.84;83.34;19342.34;5051098;28;20627;-60
2022/06/26 03:58:01;;;;;;;10.60;9.80;;;20.00;99.90;;;-141.84;82.05;19368.78;5051767;28;20256;-60
2022/06/26 04:00:29;;;;;;;11.05;10.25;;;20.10;99.90;;;-141.84;82.02;19374.88;5070187;28;20739;-61
2022/06/26 04:02:58;;;;;;;10.00;9.15;;;20.10;99.90;;;-141.84;80.57;19407.38;5058312;28;20229;-60
2022/06/26 04:05:26;;;;;;;10.50;9.27;;;20.20;99.90;;;-141.84;79.94;19429.75;5050562;28;20312;-59
2022/06/26 04:07:54;;;;;;;9.40;8.60;;;20.30;99.90;;;-141.84;79.70;19448.03;5053746;28;20201;-60
2022/06/26 04:10:23;;;;;;;10.55;9.57;;;20.40;99.90;;;-141.84;79.40;19456.16;5057096;28;20237;-61
2022/06/26 04:12:52;;;;;;;8.63;7.93;;;20.40;99.90;;;-141.84;79.75;19435.84;5055415;28;20563;-60
2022/06/26 04:15:21;;;;;;;8.45;7.75;;;20.40;99.90;;;-141.84;79.70;19456.16;5067076;28;20300;-60
2022/06/26 04:17:49;;;;;;;10.02;9.23;;;20.50;99.90;;;-141.84;79.23;19472.41;5062719;28;20228;-60
2022/06/26 04:20:19;;;;;;;9.10;8.40;;;20.50;99.90;;;-141.84;78.58;19500.88;5069920;28;20750;-61
2022/06/26 04:22:56;;;;;;;9.05;8.35;;;20.60;99.90;;;-141.84;78.11;19500.88;5060441;28;20687;-61
2022/06/26 04:25:26;;;;;;;9.35;8.45;;;20.70;99.90;;;-141.84;77.50;19500.88;5050817;28;20227;-61
2022/06/26 04:27:57;;;;;;;9.93;9.23;;;20.80;99.90;;;-141.84;76.97;19509.00;5068526;28;20234;-60
2022/06/26 04:30:25;;;;;;;8.93;8.23;;;20.90;99.90;;;-141.84;76.88;19565.91;5078480;28;20223;-61
2022/06/26 04:32:54;;;;;;;8.75;8.02;;;21.10;99.90;;;-141.84;75.98;19582.16;5093784;28;20228;-60
2022/06/26 04:35:22;;;;;;;9.00;8.30;;;21.20;99.90;;;-141.84;74.84;19663.44;5076073;28;20239;-60
2022/06/26 04:37:51;;;;;;;8.95;8.25;;;21.30;99.90;;;-141.84;72.72;19663.44;5073313;28;20735;-60
2022/06/26 04:40:19;;;;;;;7.32;6.82;;;21.50;99.90;;;-141.84;73.50;19673.59;5058364;28;20297;-60
2022/06/26 04:42:47;;;;;;;8.52;7.93;;;21.70;99.90;;;-141.84;71.80;19712.22;5052963;28;20235;-60
2022/06/26 04:45:17;;;;;;;8.90;8.27;;;21.70;99.90;;;-141.84;70.57;19763.03;5061868;28;20316;-60
2022/06/26 04:47:45;;;;;;;7.68;7.05;;;21.80;99.90;;;-141.84;70.17;19781.31;5073395;28;20282;-61
2022/06/26 04:50:14;;;;;;;7.60;7.00;;;21.90;99.90;;;-141.84;69.21;19830.09;5072263;28;20308;-60
2022/06/26 04:52:44;;;;;;;7.78;7.07;;;22.20;99.90;;;-141.84;65.29;20010.97;5053720;28;20317;-61
2022/06/26 04:55:13;;;;;;;6.55;6.13;;;22.80;99.90;;;-141.84;59.07;20358.56;5054322;28;20638;-60
2022/06/26 04:57:41;;;;;;;6.78;6.18;;;23.80;99.90;;;-141.84;52.81;20732.56;5052601;28;20616;-60
2022/06/26 05:00:12;;;;;;;5.80;5.35;;;25.10;99.90;;;-141.84;47.68;21112.72;5073286;28;20232;-60
2022/06/26 05:02:42;;;;;;;7.13;5.03;;;26.50;99.90;;;-141.84;43.93;21492.94;5055833;28;20228;-60
2022/06/26 05:05:11;;;;;;;5.68;5.28;;;27.80;99.90;;;-141.84;40.92;21814.19;5053766;28;20762;-60
2022/06/26 05:07:39;;;;;;;5.50;5.00;;;28.80;99.90;;;-141.84;38.58;22076.50;5063261;28;20197;-60
2022/06/26 05:10:09;;;;;;;5.38;4.93;;;29.70;99.90;;;-141.84;37.85;22184.28;5073397;28;20223;-60
2022/06/26 05:12:39;;;;;;;5.57;4.80;;;30.80;99.90;;;-141.84;36.92;22355.13;5064617;28;20304;-61
2022/06/26 05:15:08;;;;;;;5.10;4.70;;;30.80;99.90;;;-141.84;35.81;22556.47;5053170;28;20247;-61
2022/06/26 05:17:37;;;;;;;4.70;4.40;;;;;;;-141.84;35.63;22513.75;5059271;28;20262;-61
2022/06/26 05:20:08;;;;;;;5.47;5.05;;;31.50;99.90;;;-141.84;35.24;22501.53;5072915;28;20613;-60
2022/06/26 05:22:37;;;;;;;5.43;4.78;;;;;;;-141.84;35.60;22462.91;5071887;28;20736;-61
2022/06/26 05:25:06;;;;;;;4.97;4.57;;;31.00;99.90;;;-141.84;35.11;22532.06;5073308;28;20224;-61
2022/06/26 05:27:34;;;;;;;4.90;4.50;;;;;;;-141.84;35.19;22525.94;5085045;28;20306;-61
2022/06/26 05:30:05;;;;;;;5.40;4.90;;;31.60;99.90;;;-141.84;34.63;22595.09;5073413;28;20224;-61
2022/06/26 05:32:34;;;;;;;5.35;4.97;;;31.70;99.90;;;-141.84;35.19;22546.28;5056627;28;20302;-60
2022/06/26 05:35:03;;;;;;;5.72;4.50;;;31.90;99.90;;;-141.84;36.07;22324.59;5052844;28;20240;-61
2022/06/26 05:37:33;;;;;;;5.13;4.82;;;;;;;-141.84;38.64;21799.97;5052925;28;20222;-60
2022/06/26 05:40:02;;;;;;;5.03;4.70;;;;;;;-141.84;41.99;21427.88;5052255;28;20307;-60
2022/06/26 05:42:31;;;;;;;5.88;5.43;;;;;;;-141.84;44.71;21159.50;5050771;28;20308;-60
2022/06/26 05:44:59;;;;;;;4.72;4.43;;;;;;;-141.84;46.91;20960.25;5058226;28;20738;-60
2022/06/26 05:47:27;;;;;;;5.13;4.72;;;27.00;99.90;;;-141.84;49.11;20765.09;5068604;28;20277;-60
2022/06/26 05:49:56;;;;;;;6.05;5.55;;;;;;;-141.84;50.26;20720.38;5052194;28;20292;-59
2022/06/26 05:52:24;;;;;;;5.88;5.15;;;25.80;99.90;;;-141.84;50.12;20683.78;5052800;28;20201;-59
2022/06/26 05:54:53;;;;;;;5.43;5.03;;;25.50;99.90;;;-141.84;50.95;20628.91;5051923;28;20320;-59
2022/06/26 05:57:22;;;;;;;6.43;5.70;;;25.20;99.90;;;-141.84;50.97;20665.50;5052077;28;20308;-60
2022/06/26 05:59:51;;;;;;;5.97;5.45;;;;;;;-141.84;50.91;20708.19;5068858;28;20238;-59
2022/06/26 06:02:19;;;;;;;5.90;5.40;;;25.40;99.90;;;-141.84;51.11;20673.63;5059771;28;20678;-59
2022/06/26 06:04:47;;;;;;;5.70;5.30;;;25.60;99.90;;;-141.84;50.33;20704.13;5058770;28;20247;-60
2022/06/26 06:07:19;;;;;;;5.90;5.40;;;25.80;99.90;;;-141.84;49.89;20714.28;5056400;28;20425;-60
2022/06/26 06:09:47;;;;;;;5.95;5.45;;;25.90;99.90;;;-141.84;49.02;20805.75;5051560;28;20229;-59
2022/06/26 06:12:17;;;;;;;6.03;4.88;;;25.90;99.90;;;-141.84;48.37;20777.28;5062405;28;20224;-60
2022/06/26 06:14:45;;;;;;;6.03;5.22;;;25.90;99.90;;;-141.84;48.94;20765.09;5051163;28;20221;-58
2022/06/26 06:19:59;;;;;;;5.00;4.70;;;26.10;99.90;;;-141.84;49.58;20691.91;5067291;28;20206;-60
2022/06/26 06:22:27;;;;;;;5.95;5.03;;;25.90;99.90;;;-141.84;49.46;20748.84;5076266;28;20243;-60
2022/06/26 06:24:55;;;;;;;4.90;4.53;;;26.00;99.90;;;-141.84;49.43;20730.53;5074605;28;20755;-59
2022/06/26 06:27:25;;;;;;;5.45;5.05;;;26.10;99.90;;;-141.84;48.76;20797.63;5071461;28;20304;-59
2022/06/26 06:29:53;;;;;;;5.55;5.03;;;26.20;99.90;;;-141.84;48.53;20763.06;5070279;28;20226;-59
2022/06/26 06:32:21;;;;;;;5.38;4.90;;;26.20;99.90;;;-141.84;48.96;20797.63;5070928;28;20243;-60
2022/06/26 06:34:50;;;;;;;5.65;5.25;;;26.20;99.90;;;-141.84;47.96;20842.34;5066970;28;20652;-60
2022/06/26 06:37:18;;;;;;;5.30;4.80;;;26.30;99.90;;;-141.84;48.42;20805.75;5051651;28;20661;-58
2022/06/26 06:39:47;;;;;;;5.85;5.35;;;26.50;99.90;;;-141.84;47.98;20858.59;5050925;28;20671;-61
2022/06/26 06:42:15;;;;;;;5.88;5.38;;;26.50;99.90;;;-141.84;48.81;20832.19;5050689;28;20304;-61
2022/06/26 06:44:45;;;;;;;5.47;5.07;;;26.50;99.90;;;-141.84;48.03;20868.78;5055019;28;20220;-59
2022/06/26 06:47:13;;;;;;;5.30;4.90;;;26.60;99.90;;;-141.84;47.35;20952.13;5057300;28;20328;-59
2022/06/26 06:49:41;;;;;;;5.75;5.35;;;26.70;99.90;;;-141.84;48.03;20895.19;5051420;28;20213;-59
2022/06/26 06:52:10;;;;;;;5.13;4.75;;;26.90;99.90;;;-141.84;47.48;20939.94;5061407;28;20307;-60
2022/06/26 06:54:38;;;;;;;5.45;5.10;;;27.00;99.90;;;-141.84;47.39;20980.59;5070249;28;20244;-63
2022/06/26 06:57:06;;;;;;;5.35;5.03;;;27.10;99.90;;;-141.84;47.58;20946.03;5070888;28;20311;-60
2022/06/26 06:59:34;;;;;;;5.60;5.10;;;27.00;99.90;;;-141.84;47.44;20941.97;5070519;28;20247;-61
2022/06/26 07:02:05;;;;;;;5.07;4.75;;;27.00;99.90;;;-141.84;48.62;20870.81;5070885;28;20224;-59
2022/06/26 07:04:33;;;;;;;5.10;4.70;;;26.80;99.90;;;-141.84;47.98;20931.78;5071296;28;20193;-60
2022/06/26 07:07:01;;;;;;;5.63;5.05;;;26.90;99.90;;;-141.84;47.39;20935.88;5069433;28;20225;-60
2022/06/26 07:09:30;;;;;;;4.80;4.45;;;27.00;99.90;;;-141.84;47.52;20905.38;5050591;28;20659;-59
2022/06/26 07:11:58;;;;;;;5.35;4.95;;;27.00;99.90;;;-141.84;47.81;20919.59;5050760;28;20233;-59
2022/06/26 07:14:26;;;;;;;5.30;4.90;;;27.10;99.90;;;-141.84;47.19;20915.53;5051032;28;20327;-58
2022/06/26 07:16:55;;;;;;;5.47;4.78;;;27.20;99.90;;;-141.84;46.71;20960.25;5070930;28;20251;-59
2022/06/26 07:19:24;;;;;;;5.07;4.60;;;27.10;99.90;;;-141.84;47.29;20927.72;5076265;28;20200;-60
2022/06/26 07:21:53;;;;;;;4.60;4.30;;;27.10;99.90;;;-141.84;47.52;20901.31;5089003;28;20314;-59
2022/06/26 07:24:21;;;;;;;4.88;4.47;;;27.00;99.90;;;-141.84;47.82;20878.94;5069935;28;20693;-60
2022/06/26 07:26:49;;;;;;;4.93;4.55;;;27.00;99.90;;;-141.84;48.05;20889.09;5051330;28;20955;-60
2022/06/26 07:29:17;;;;;;;5.07;4.70;;;27.00;99.90;;;-141.84;47.54;20889.09;5063367;28;20748;-60
2022/06/26 07:31:46;;;;;;;5.22;4.72;;;26.90;99.90;;;-141.84;47.32;20921.63;5070396;28;20236;-60
2022/06/26 07:34:16;;;;;;;5.00;4.60;;;27.00;99.90;;;-141.84;47.55;20950.09;5070672;28;20292;-59
2022/06/26 07:36:49;;;;;;;5.32;4.82;;;27.10;99.90;;;-141.84;47.14;20948.06;5065801;28;20303;-60
2022/06/26 07:39:21;;;;;;;5.50;4.95;;;27.10;99.90;;;-141.84;47.13;20990.75;5068089;28;20304;-61
2022/06/26 07:41:50;;;;;;;5.47;4.90;;;;;;;-141.84;47.92;20917.56;5066008;28;20229;-59
2022/06/26 07:44:18;;;;;;;4.80;4.50;;;27.10;99.90;;;-141.84;46.63;20992.78;5051200;28;20232;-60
2022/06/26 07:46:47;;;;;;;5.57;5.07;;;27.00;99.90;;;-141.84;47.42;21000.91;5070643;28;20573;-61
2022/06/26 07:49:15;;;;;;;5.05;4.70;;;27.10;99.90;;;-141.84;47.62;20946.03;5061558;28;20292;-60
2022/06/26 07:51:45;;;;;;;4.93;4.53;;;27.10;99.90;;;-141.84;46.74;20980.59;5049982;28;20348;-60
2022/06/26 07:54:13;;;;;;;4.90;4.45;;;27.30;99.90;;;-141.84;45.59;21017.19;5049994;28;20231;-60
2022/06/26 07:56:41;;;;;;;4.50;4.18;;;27.20;99.90;;;-141.84;46.27;20994.81;5052799;28;20303;-59
2022/06/26 07:59:09;;;;;;;4.53;4.22;;;27.20;99.90;;;-141.84;45.50;21037.50;5058869;28;20255;-59
2022/06/26 08:01:38;;;;;;;4.43;4.13;;;27.30;99.90;;;-141.84;44.90;21055.81;5053681;28;20204;-59
2022/06/26 08:04:06;;;;;;;5.03;4.60;;;27.50;99.90;;;-141.84;43.95;21137.13;5069807;28;20312;-60
2022/06/26 08:06:34;;;;;;;4.55;3.70;;;27.60;99.90;;;-141.84;43.15;21163.56;5066589;28;20243;-61
2022/06/26 08:09:04;;;;;;;4.20;3.90;;;27.70;99.90;;;-141.84;43.51;21102.56;5069680;28;20235;-60
2022/06/26 08:11:32;;;;;;;4.53;3.67;;;27.60;99.90;;;-141.84;43.45;21116.78;5072362;28;20229;-60
2022/06/26 08:14:00;;;;;;;3.92;3.63;;;27.60;99.90;;;-141.84;43.14;21157.47;5057817;28;20351;-60
2022/06/26 08:16:29;;;;;;;4.18;3.88;;;27.50;99.90;;;-141.84;43.07;21126.97;5085854;28;20291;-60
2022/06/26 08:18:57;;;;;;;3.50;3.30;;;27.50;99.90;;;-141.84;43.08;21124.94;5069005;28;20253;-59
2022/06/26 08:24:15;;;;;;;4.32;3.90;;;27.50;99.90;;;-141.84;42.37;21167.63;5052915;28;20289;-60
2022/06/26 08:26:43;;;;;;;4.30;4.00;;;27.60;99.90;;;-141.84;43.34;21122.91;5053445;28;20309;-61
2022/06/26 08:29:11;;;;;;;4.50;4.20;;;27.60;99.90;;;-141.84;43.73;21110.69;5056540;28;20225;-63
2022/06/26 08:31:40;;;;;;;4.00;3.70;;;27.50;99.90;;;-141.84;43.33;21143.22;5053475;28;20291;-60
2022/06/26 08:34:08;;;;;;;3.97;3.67;;;27.60;99.90;;;-141.84;42.78;21124.94;5053303;28;20578;-60
2022/06/26 08:36:38;;;;;;;4.65;4.35;;;27.60;99.90;;;-141.84;43.21;21163.56;5053709;28;20507;-61
2022/06/26 08:39:07;;;;;;;3.45;3.15;;;27.50;99.90;;;-141.84;41.44;21208.28;5053467;28;20313;-60
2022/06/26 08:41:42;;;;;;;3.70;3.40;;;27.60;99.90;;;-141.84;42.14;21161.53;5061660;28;20228;-61
2022/06/26 08:44:11;;;;;;;3.65;3.35;;;27.40;99.90;;;-141.84;42.85;21096.47;5073416;28;20323;-60
2022/06/26 08:46:42;;;;;;;3.47;3.20;;;27.30;99.90;;;-141.84;43.01;21045.63;5070937;28;20207;-59
2022/06/26 08:49:14;;;;;;;4.47;3.20;;;27.20;99.90;;;-141.84;42.74;21082.25;5073784;28;20224;-60
2022/06/26 08:51:47;;;;;;;3.55;3.25;;;27.20;99.90;;;-141.84;42.72;21094.44;5057306;28;20319;-61
2022/06/26 08:54:17;;;;;;;3.90;3.60;;;27.20;99.90;;;-141.84;42.05;21169.66;5052963;28;20681;-61
2022/06/26 08:56:49;;;;;;;3.30;3.10;;;27.30;99.90;;;-141.84;42.23;21118.84;5052794;28;20237;-61
2022/06/26 08:59:19;;;;;;;3.30;3.03;;;27.30;99.90;;;-141.84;41.87;21147.28;5066048;28;20248;-59
2022/06/26 09:01:48;;;;;;;2.95;2.75;;;27.40;99.90;;;-141.84;41.29;21204.22;5061405;28;20656;-61
2022/06/26 09:04:17;;;;;;;3.13;2.65;;;27.50;99.90;;;-141.84;40.55;21218.44;5073731;28;20201;-61
2022/06/26 09:06:46;;;;;;;2.83;2.63;;;27.60;99.90;;;-141.84;40.46;21253.00;5072639;28;20727;-60
2022/06/26 09:09:16;;;;;;;2.60;2.47;;;27.70;99.90;;;-141.84;39.01;21299.78;5071615;28;20331;-61
2022/06/26 09:11:47;;;;;;;2.78;2.53;;;27.70;99.90;;;-141.84;38.67;21326.22;5065057;28;20224;-61
2022/06/26 09:14:16;;;;;;;2.95;2.75;;;27.80;99.90;;;-141.84;38.81;21366.88;5072753;28;20224;-60
2022/06/26 09:16:47;;;;;;;3.38;3.17;;;27.80;99.90;;;-141.84;38.85;21338.41;5072446;28;20698;-60
2022/06/26 09:19:19;;;;;;;3.00;2.72;;;27.90;99.90;;;-141.84;38.74;21360.78;5065451;28;20275;-63
2022/06/26 09:21:48;;;;;;;3.10;2.90;;;27.90;99.90;;;-141.84;39.12;21364.84;5052551;28;20225;-60
2022/06/26 09:24:20;;;;;;;2.90;2.63;;;27.90;99.90;;;-141.84;39.08;21354.66;5052490;28;20329;-61
2022/06/26 09:27:06;;;;;;;3.05;2.85;;;27.90;99.90;;;-141.84;38.53;21379.06;5052495;28;20279;-61
2022/06/26 09:29:34;;;;;;;2.78;2.58;;;28.00;99.90;;;-141.84;38.53;21427.88;5067666;28;20711;-63
2022/06/26 09:32:11;;;;;;;3.05;2.85;;;28.00;99.90;;;-141.84;38.62;21403.47;5056147;28;20241;-60
2022/06/26 09:34:44;;;;;;;3.20;3.00;;;28.20;99.90;;;-141.84;37.98;21454.28;5052977;28;20275;-60
2022/06/26 09:37:13;;;;;;;3.22;2.92;;;28.30;99.90;;;-141.84;37.70;21523.44;5052555;28;20236;-59
2022/06/26 09:40:01;;;;;;;2.90;2.67;;;28.50;99.90;;;-141.84;37.29;21545.78;5052064;28;20711;-60
2022/06/26 09:42:34;;;;;;;3.83;2.75;;;28.60;99.90;;;-141.84;36.05;21631.19;5067949;28;20367;-62
2022/06/26 09:45:04;;;;;;;3.17;2.70;;;28.70;99.90;;;-141.84;36.85;21535.63;5072087;28;20217;-61
2022/06/26 09:47:35;;;;;;;2.83;2.63;;;28.70;99.90;;;-141.84;36.56;21558.00;5069255;28;20255;-60
2022/06/26 09:50:07;;;;;;;2.72;2.50;;;28.80;99.90;;;-141.84;36.85;21564.09;5052290;28;20225;-60
2022/06/26 09:52:36;;;;;;;3.15;2.95;;;28.60;99.90;;;-141.84;36.61;21545.78;5052303;28;20190;-59
2022/06/26 09:55:09;;;;;;;2.70;2.50;;;28.60;99.90;;;-141.84;36.27;21574.25;5051705;28;20676;-60
2022/06/26 09:57:39;;;;;;;2.92;2.72;;;28.60;99.90;;;-141.84;35.36;21596.63;5053511;28;20308;-60
2022/06/26 10:00:10;;;;;;;2.55;2.42;;;28.70;99.90;;;-141.84;35.35;21625.09;5055976;28;20238;-62
2022/06/26 10:08:17;;;;;;;2.63;2.42;;;29.10;99.90;;;-141.84;34.68;21802.00;5065743;28;20274;-60
2022/06/26 10:10:48;;;;;;;2.80;2.60;;;29.30;99.90;;;-141.84;34.61;21826.41;5051590;28;20675;-60
2022/06/26 10:13:19;;;;;;;2.75;2.55;;;29.40;99.90;;;-141.84;34.46;21879.25;5051900;28;20213;-61
2022/06/26 10:15:55;;;;;;;3.00;2.80;;;29.60;99.90;;;-141.84;34.51;21907.72;5056641;28;20304;-61
2022/06/26 10:18:46;;;;;;;2.70;2.50;;;29.80;99.90;;;-141.84;32.93;22001.28;5063424;28;20221;-62
2022/06/26 10:21:14;;;;;;;2.60;2.40;;;29.90;99.90;;;-141.84;33.26;22011.44;5051810;28;20252;-61
2022/06/26 10:23:43;;;;;;;2.53;2.33;;;30.10;99.90;;;-141.84;32.95;22041.94;5050855;28;20228;-61
2022/06/26 10:26:17;;;;;;;3.40;2.30;;;30.20;99.90;;;-141.84;32.54;22094.81;5054628;28;20255;-61
2022/06/26 10:29:04;;;;;;;2.20;2.00;;;30.30;99.90;;;-141.84;31.33;22206.66;5071120;28;20641;-61